sensor_id;sensor_type;location;lat;lon;timestamp;temperature;humidity
20200;DHT22;36284;37.236;-121.934;2022-09-27T00:00:11;26.20;99.90
20200;DHT22;36284;37.236;-121.934;2022-09-27T00:02:38;26.00;99.90
20200;DHT22;36284;37.236;-121.934;2022-09-27T00:05:06;25.60;99.90
20200;DHT22;36284;37.236;-121.934;2022-09-27T00:07:33;25.80;99.90
20200;DHT22;36284;37.236;-121.934;2022-09-27T00:10:00;25.90;99.90
20200;DHT22;36284;37.236;-121.934;2022-09-27T00:12:27;25.90;99.90
20200;DHT22;36284;37.236;-121.934;2022-09-27T00:14:54;25.40;99.90
20200;DHT22;36284;37.236;-121.934;2022-09-27T00:17:22;25.40;99.90
20200;DHT22;36284;37.236;-121.934;2022-09-27T00:19:49;25.30;99.90
20200;DHT22;36284;37.236;-121.934;2022-09-27T00:22:16;25.00;99.90
20200;DHT22;36284;37.236;-121.934;2022-09-27T00:24:42;25.20;99.90
20200;DHT22;36284;37.236;-121.934;2022-09-27T00:27:09;25.20;99.90
20200;DHT22;36284;37.236;-121.934;2022-09-27T00:29:36;25.00;99.90
20200;DHT22;36284;37.236;-121.934;2022-09-27T00:32:03;25.00;99.90
20200;DHT22;36284;37.236;-121.934;2022-09-27T00:34:30;24.90;99.90
20200;DHT22;36284;37.236;-121.934;2022-09-27T00:36:57;24.90;99.90
20200;DHT22;36284;37.236;-121.934;2022-09-27T00:39:24;24.80;99.90
20200;DHT22;36284;37.236;-121.934;2022-09-27T00:41:51;24.80;99.90
20200;DHT22;36284;37.236;-121.934;2022-09-27T00:49:36;24.50;99.90
20200;DHT22;36284;37.236;-121.934;2022-09-27T00:52:10;24.30;99.90
20200;DHT22;36284;37.236;-121.934;2022-09-27T00:54:41;24.30;99.90
20200;DHT22;36284;37.236;-121.934;2022-09-27T00:57:10;24.10;99.90
20200;DHT22;36284;37.236;-121.934;2022-09-27T00:59:49;23.90;99.90
20200;DHT22;36284;37.236;-121.934;2022-09-27T01:02:18;23.30;99.90
20200;DHT22;36284;37.236;-121.934;2022-09-27T01:04:45;23.40;99.90
20200;DHT22;36284;37.236;-121.934;2022-09-27T01:07:13;23.20;99.90
20200;DHT22;36284;37.236;-121.934;2022-09-27T01:09:40;22.80;99.90
20200;DHT22;36284;37.236;-121.934;2022-09-27T01:14:48;22.70;99.90
20200;DHT22;36284;37.236;-121.934;2022-09-27T01:26:53;22.60;99.90
20200;DHT22;36284;37.236;-121.934;2022-09-27T01:31:48;22.30;99.90
20200;DHT22;36284;37.236;-121.934;2022-09-27T01:34:25;22.10;99.90
20200;DHT22;36284;37.236;-121.934;2022-09-27T01:39:44;21.50;99.90
20200;DHT22;36284;37.236;-121.934;2022-09-27T01:45:25;21.40;99.90
20200;DHT22;36284;37.236;-121.934;2022-09-27T01:47:58;21.30;99.90
20200;DHT22;36284;37.236;-121.934;2022-09-27T01:50:39;21.20;99.90
20200;DHT22;36284;37.236;-121.934;2022-09-27T01:53:19;21.10;99.90
20200;DHT22;36284;37.236;-121.934;2022-09-27T01:55:49;20.90;99.90
20200;DHT22;36284;37.236;-121.934;2022-09-27T01:58:40;20.90;99.90
20200;DHT22;36284;37.236;-121.934;2022-09-27T02:01:08;20.90;99.90
20200;DHT22;36284;37.236;-121.934;2022-09-27T02:03:39;20.80;99.90
20200;DHT22;36284;37.236;-121.934;2022-09-27T02:06:14;20.80;99.90
20200;DHT22;36284;37.236;-121.934;2022-09-27T02:08:50;20.60;99.90
20200;DHT22;36284;37.236;-121.934;2022-09-27T02:11:19;20.50;99.90
20200;DHT22;36284;37.236;-121.934;2022-09-27T02:13:57;20.40;99.90
20200;DHT22;36284;37.236;-121.934;2022-09-27T02:24:15;20.00;99.90
20200;DHT22;36284;37.236;-121.934;2022-09-27T02:26:50;19.90;99.90
20200;DHT22;36284;37.236;-121.934;2022-09-27T02:29:35;20.00;99.90
20200;DHT22;36284;37.236;-121.934;2022-09-27T02:32:04;19.80;99.90
20200;DHT22;36284;37.236;-121.934;2022-09-27T02:34:33;19.70;99.90
20200;DHT22;36284;37.236;-121.934;2022-09-27T02:37:02;19.60;99.90
20200;DHT22;36284;37.236;-121.934;2022-09-27T02:39:30;19.50;99.90
20200;DHT22;36284;37.236;-121.934;2022-09-27T02:41:56;19.50;99.90
20200;DHT22;36284;37.236;-121.934;2022-09-27T02:44:26;19.40;99.90
20200;DHT22;36284;37.236;-121.934;2022-09-27T02:47:18;19.30;99.90
20200;DHT22;36284;37.236;-121.934;2022-09-27T02:55:29;19.20;99.90
20200;DHT22;36284;37.236;-121.934;2022-09-27T02:58:22;19.10;99.90
20200;DHT22;36284;37.236;-121.934;2022-09-27T03:06:21;18.80;99.90
20200;DHT22;36284;37.236;-121.934;2022-09-27T03:08:50;18.70;99.90
20200;DHT22;36284;37.236;-121.934;2022-09-27T03:11:17;18.70;99.90
20200;DHT22;36284;37.236;-121.934;2022-09-27T03:13:44;18.60;99.90
20200;DHT22;36284;37.236;-121.934;2022-09-27T03:16:11;18.50;99.90
20200;DHT22;36284;37.236;-121.934;2022-09-27T03:18:38;18.40;99.90
20200;DHT22;36284;37.236;-121.934;2022-09-27T03:21:05;18.40;99.90
20200;DHT22;36284;37.236;-121.934;2022-09-27T03:23:32;18.40;99.90
20200;DHT22;36284;37.236;-121.934;2022-09-27T03:25:59;18.20;99.90
20200;DHT22;36284;37.236;-121.934;2022-09-27T03:28:26;18.10;99.90
20200;DHT22;36284;37.236;-121.934;2022-09-27T03:30:55;18.00;99.90
20200;DHT22;36284;37.236;-121.934;2022-09-27T03:33:22;17.90;99.90
20200;DHT22;36284;37.236;-121.934;2022-09-27T03:35:49;17.90;99.90
20200;DHT22;36284;37.236;-121.934;2022-09-27T03:38:16;17.90;99.90
20200;DHT22;36284;37.236;-121.934;2022-09-27T03:40:43;17.70;99.90
20200;DHT22;36284;37.236;-121.934;2022-09-27T03:43:09;17.70;99.90
20200;DHT22;36284;37.236;-121.934;2022-09-27T03:45:36;17.60;99.90
20200;DHT22;36284;37.236;-121.934;2022-09-27T03:48:04;17.50;99.90
20200;DHT22;36284;37.236;-121.934;2022-09-27T03:50:30;17.40;99.90
20200;DHT22;36284;37.236;-121.934;2022-09-27T03:52:57;17.50;99.90
20200;DHT22;36284;37.236;-121.934;2022-09-27T03:55:24;17.50;99.90
20200;DHT22;36284;37.236;-121.934;2022-09-27T03:57:51;17.50;99.90
20200;DHT22;36284;37.236;-121.934;2022-09-27T04:00:19;17.70;99.90
20200;DHT22;36284;37.236;-121.934;2022-09-27T04:02:46;17.60;99.90
20200;DHT22;36284;37.236;-121.934;2022-09-27T04:05:12;17.50;99.90
20200;DHT22;36284;37.236;-121.934;2022-09-27T04:07:39;17.40;99.90
20200;DHT22;36284;37.236;-121.934;2022-09-27T04:10:11;17.30;99.90
20200;DHT22;36284;37.236;-121.934;2022-09-27T04:12:39;17.30;99.90
20200;DHT22;36284;37.236;-121.934;2022-09-27T04:15:06;17.20;99.90
20200;DHT22;36284;37.236;-121.934;2022-09-27T04:17:34;17.10;99.90
20200;DHT22;36284;37.236;-121.934;2022-09-27T04:20:01;17.10;99.90
20200;DHT22;36284;37.236;-121.934;2022-09-27T04:22:29;17.00;99.90
20200;DHT22;36284;37.236;-121.934;2022-09-27T04:24:56;17.00;99.90
20200;DHT22;36284;37.236;-121.934;2022-09-27T04:27:23;17.00;99.90
20200;DHT22;36284;37.236;-121.934;2022-09-27T04:29:50;16.90;99.90
20200;DHT22;36284;37.236;-121.934;2022-09-27T04:32:17;16.80;99.90
20200;DHT22;36284;37.236;-121.934;2022-09-27T04:34:44;16.80;99.90
20200;DHT22;36284;37.236;-121.934;2022-09-27T04:37:30;16.70;99.90
20200;DHT22;36284;37.236;-121.934;2022-09-27T04:39:57;16.60;99.90
20200;DHT22;36284;37.236;-121.934;2022-09-27T04:42:23;16.60;99.90
20200;DHT22;36284;37.236;-121.934;2022-09-27T04:44:51;16.40;99.90
20200;DHT22;36284;37.236;-121.934;2022-09-27T04:47:18;16.20;99.90
20200;DHT22;36284;37.236;-121.934;2022-09-27T04:49:47;16.50;99.90
20200;DHT22;36284;37.236;-121.934;2022-09-27T04:52:14;16.30;99.90
20200;DHT22;36284;37.236;-121.934;2022-09-27T04:54:41;16.20;99.90
20200;DHT22;36284;37.236;-121.934;2022-09-27T04:57:08;15.90;99.90
20200;DHT22;36284;37.236;-121.934;2022-09-27T04:59:37;15.90;99.90
20200;DHT22;36284;37.236;-121.934;2022-09-27T05:02:05;15.80;99.90
20200;DHT22;36284;37.236;-121.934;2022-09-27T05:04:33;15.90;99.90
20200;DHT22;36284;37.236;-121.934;2022-09-27T05:07:00;15.80;99.90
20200;DHT22;36284;37.236;-121.934;2022-09-27T05:09:27;15.80;99.90
20200;DHT22;36284;37.236;-121.934;2022-09-27T05:11:53;15.80;99.90
20200;DHT22;36284;37.236;-121.934;2022-09-27T05:14:20;15.80;99.90
20200;DHT22;36284;37.236;-121.934;2022-09-27T05:16:47;15.70;99.90
20200;DHT22;36284;37.236;-121.934;2022-09-27T05:19:14;15.60;99.90
20200;DHT22;36284;37.236;-121.934;2022-09-27T05:21:41;15.70;99.90
20200;DHT22;36284;37.236;-121.934;2022-09-27T05:24:09;15.60;99.90
20200;DHT22;36284;37.236;-121.934;2022-09-27T05:26:36;15.50;99.90
20200;DHT22;36284;37.236;-121.934;2022-09-27T05:29:03;15.50;99.90
20200;DHT22;36284;37.236;-121.934;2022-09-27T05:31:30;15.50;99.90
20200;DHT22;36284;37.236;-121.934;2022-09-27T05:33:57;15.60;99.90
20200;DHT22;36284;37.236;-121.934;2022-09-27T05:36:24;15.50;99.90
20200;DHT22;36284;37.236;-121.934;2022-09-27T05:41:19;15.40;99.90
20200;DHT22;36284;37.236;-121.934;2022-09-27T05:43:45;15.40;99.90
20200;DHT22;36284;37.236;-121.934;2022-09-27T05:46:12;15.50;99.90
20200;DHT22;36284;37.236;-121.934;2022-09-27T05:48:39;15.50;99.90
20200;DHT22;36284;37.236;-121.934;2022-09-27T05:51:06;15.40;99.90
20200;DHT22;36284;37.236;-121.934;2022-09-27T05:53:33;15.40;99.90
20200;DHT22;36284;37.236;-121.934;2022-09-27T05:56:01;15.60;99.90
20200;DHT22;36284;37.236;-121.934;2022-09-27T05:58:29;15.20;99.90
20200;DHT22;36284;37.236;-121.934;2022-09-27T06:00:56;15.70;99.90
20200;DHT22;36284;37.236;-121.934;2022-09-27T06:03:23;15.30;99.90
20200;DHT22;36284;37.236;-121.934;2022-09-27T06:05:51;15.90;99.90
20200;DHT22;36284;37.236;-121.934;2022-09-27T06:08:18;15.90;99.90
20200;DHT22;36284;37.236;-121.934;2022-09-27T06:10:47;15.90;99.90
20200;DHT22;36284;37.236;-121.934;2022-09-27T06:13:15;16.30;99.90
20200;DHT22;36284;37.236;-121.934;2022-09-27T06:15:44;15.90;99.90
20200;DHT22;36284;37.236;-121.934;2022-09-27T06:18:14;15.70;99.90
20200;DHT22;36284;37.236;-121.934;2022-09-27T06:20:44;16.00;99.90
20200;DHT22;36284;37.236;-121.934;2022-09-27T06:23:16;16.00;99.90
20200;DHT22;36284;37.236;-121.934;2022-09-27T06:25:46;16.40;99.90
20200;DHT22;36284;37.236;-121.934;2022-09-27T06:28:14;16.00;99.90
20200;DHT22;36284;37.236;-121.934;2022-09-27T06:33:11;16.10;99.90
20200;DHT22;36284;37.236;-121.934;2022-09-27T06:35:39;16.00;99.90
20200;DHT22;36284;37.236;-121.934;2022-09-27T06:38:10;16.20;99.90
20200;DHT22;36284;37.236;-121.934;2022-09-27T06:40:37;16.10;99.90
20200;DHT22;36284;37.236;-121.934;2022-09-27T06:43:09;15.90;99.90
20200;DHT22;36284;37.236;-121.934;2022-09-27T06:45:37;15.80;99.90
20200;DHT22;36284;37.236;-121.934;2022-09-27T06:48:06;15.80;99.90
20200;DHT22;36284;37.236;-121.934;2022-09-27T06:50:35;15.80;99.90
20200;DHT22;36284;37.236;-121.934;2022-09-27T06:53:04;15.90;99.90
20200;DHT22;36284;37.236;-121.934;2022-09-27T06:55:31;15.90;99.90
20200;DHT22;36284;37.236;-121.934;2022-09-27T06:57:59;15.90;99.90
20200;DHT22;36284;37.236;-121.934;2022-09-27T07:00:47;15.80;99.90
20200;DHT22;36284;37.236;-121.934;2022-09-27T07:03:14;15.80;99.90
20200;DHT22;36284;37.236;-121.934;2022-09-27T07:05:42;15.80;99.90
20200;DHT22;36284;37.236;-121.934;2022-09-27T07:08:09;15.80;99.90
20200;DHT22;36284;37.236;-121.934;2022-09-27T07:10:38;15.90;99.90
20200;DHT22;36284;37.236;-121.934;2022-09-27T07:13:07;15.90;99.90
20200;DHT22;36284;37.236;-121.934;2022-09-27T07:15:35;15.90;99.90
20200;DHT22;36284;37.236;-121.934;2022-09-27T07:18:03;15.80;99.90
20200;DHT22;36284;37.236;-121.934;2022-09-27T07:20:30;15.90;99.90
20200;DHT22;36284;37.236;-121.934;2022-09-27T07:22:58;15.90;99.90
20200;DHT22;36284;37.236;-121.934;2022-09-27T07:25:25;15.80;99.90
20200;DHT22;36284;37.236;-121.934;2022-09-27T07:27:52;15.80;99.90
20200;DHT22;36284;37.236;-121.934;2022-09-27T07:30:19;15.70;99.90
20200;DHT22;36284;37.236;-121.934;2022-09-27T07:32:46;15.60;99.90
20200;DHT22;36284;37.236;-121.934;2022-09-27T07:35:13;15.60;99.90
20200;DHT22;36284;37.236;-121.934;2022-09-27T07:37:41;15.40;99.90
20200;DHT22;36284;37.236;-121.934;2022-09-27T07:40:09;15.70;99.90
20200;DHT22;36284;37.236;-121.934;2022-09-27T07:42:36;15.60;99.90
20200;DHT22;36284;37.236;-121.934;2022-09-27T07:45:07;15.60;99.90
20200;DHT22;36284;37.236;-121.934;2022-09-27T07:47:35;15.60;99.90
20200;DHT22;36284;37.236;-121.934;2022-09-27T07:50:05;15.50;99.90
20200;DHT22;36284;37.236;-121.934;2022-09-27T07:52:39;15.60;99.90
20200;DHT22;36284;37.236;-121.934;2022-09-27T07:55:08;15.70;99.90
20200;DHT22;36284;37.236;-121.934;2022-09-27T07:57:36;15.80;99.90
20200;DHT22;36284;37.236;-121.934;2022-09-27T08:00:05;15.80;99.90
20200;DHT22;36284;37.236;-121.934;2022-09-27T08:02:33;15.80;99.90
20200;DHT22;36284;37.236;-121.934;2022-09-27T08:05:00;15.80;99.90
20200;DHT22;36284;37.236;-121.934;2022-09-27T08:07:28;15.80;99.90
20200;DHT22;36284;37.236;-121.934;2022-09-27T08:09:55;15.70;99.90
20200;DHT22;36284;37.236;-121.934;2022-09-27T08:12:22;15.60;99.90
20200;DHT22;36284;37.236;-121.934;2022-09-27T08:14:49;15.60;99.90
20200;DHT22;36284;37.236;-121.934;2022-09-27T08:17:16;15.60;99.90
20200;DHT22;36284;37.236;-121.934;2022-09-27T08:19:44;15.70;99.90
20200;DHT22;36284;37.236;-121.934;2022-09-27T08:22:13;15.60;99.90
20200;DHT22;36284;37.236;-121.934;2022-09-27T08:24:40;15.70;99.90
20200;DHT22;36284;37.236;-121.934;2022-09-27T08:27:07;15.50;99.90
20200;DHT22;36284;37.236;-121.934;2022-09-27T08:29:34;15.80;99.90
20200;DHT22;36284;37.236;-121.934;2022-09-27T08:32:01;15.60;99.90
20200;DHT22;36284;37.236;-121.934;2022-09-27T08:34:28;15.70;99.90
20200;DHT22;36284;37.236;-121.934;2022-09-27T08:36:55;15.60;99.90
20200;DHT22;36284;37.236;-121.934;2022-09-27T08:39:22;15.60;99.90
20200;DHT22;36284;37.236;-121.934;2022-09-27T08:47:26;15.60;99.90
20200;DHT22;36284;37.236;-121.934;2022-09-27T08:50:02;15.50;99.90
20200;DHT22;36284;37.236;-121.934;2022-09-27T08:52:34;15.50;99.90
20200;DHT22;36284;37.236;-121.934;2022-09-27T08:55:05;15.50;99.90
20200;DHT22;36284;37.236;-121.934;2022-09-27T08:57:35;15.50;99.90
20200;DHT22;36284;37.236;-121.934;2022-09-27T09:00:06;15.60;99.90
20200;DHT22;36284;37.236;-121.934;2022-09-27T09:02:34;15.50;99.90
20200;DHT22;36284;37.236;-121.934;2022-09-27T09:05:16;15.50;99.90
20200;DHT22;36284;37.236;-121.934;2022-09-27T09:08:10;15.40;99.90
20200;DHT22;36284;37.236;-121.934;2022-09-27T09:10:51;15.40;99.90
20200;DHT22;36284;37.236;-121.934;2022-09-27T09:17:12;15.30;99.90
20200;DHT22;36284;37.236;-121.934;2022-09-27T09:20:25;15.40;99.90
20200;DHT22;36284;37.236;-121.934;2022-09-27T09:26:05;15.40;99.90
20200;DHT22;36284;37.236;-121.934;2022-09-27T09:31:57;15.60;99.90
20200;DHT22;36284;37.236;-121.934;2022-09-27T09:34:56;15.70;99.90
20200;DHT22;36284;37.236;-121.934;2022-09-27T09:37:40;15.60;99.90
20200;DHT22;36284;37.236;-121.934;2022-09-27T09:40:43;15.50;99.90
20200;DHT22;36284;37.236;-121.934;2022-09-27T09:43:17;15.40;99.90
20200;DHT22;36284;37.236;-121.934;2022-09-27T09:45:57;15.40;99.90
20200;DHT22;36284;37.236;-121.934;2022-09-27T09:48:29;15.40;99.90
20200;DHT22;36284;37.236;-121.934;2022-09-27T09:51:00;15.40;99.90
20200;DHT22;36284;37.236;-121.934;2022-09-27T09:56:55;15.40;99.90
20200;DHT22;36284;37.236;-121.934;2022-09-27T09:59:32;15.50;99.90
20200;DHT22;36284;37.236;-121.934;2022-09-27T10:04:44;15.60;99.90
20200;DHT22;36284;37.236;-121.934;2022-09-27T10:07:11;15.50;99.90
20200;DHT22;36284;37.236;-121.934;2022-09-27T10:09:38;15.50;99.90
20200;DHT22;36284;37.236;-121.934;2022-09-27T10:12:05;15.50;99.90
20200;DHT22;36284;37.236;-121.934;2022-09-27T10:14:32;15.40;99.90
20200;DHT22;36284;37.236;-121.934;2022-09-27T10:17:03;15.40;99.90
20200;DHT22;36284;37.236;-121.934;2022-09-27T10:19:33;15.40;99.90
20200;DHT22;36284;37.236;-121.934;2022-09-27T10:22:23;15.50;99.90
20200;DHT22;36284;37.236;-121.934;2022-09-27T10:25:05;15.50;99.90
20200;DHT22;36284;37.236;-121.934;2022-09-27T10:27:48;15.60;99.90
20200;DHT22;36284;37.236;-121.934;2022-09-27T10:30:31;15.00;99.90
20200;DHT22;36284;37.236;-121.934;2022-09-27T10:33:03;15.30;99.90
20200;DHT22;36284;37.236;-121.934;2022-09-27T10:35:35;15.30;99.90
20200;DHT22;36284;37.236;-121.934;2022-09-27T10:40:46;15.40;99.90
20200;DHT22;36284;37.236;-121.934;2022-09-27T10:43:46;15.10;99.90
20200;DHT22;36284;37.236;-121.934;2022-09-27T10:46:27;15.20;99.90
20200;DHT22;36284;37.236;-121.934;2022-09-27T10:49:28;15.30;99.90
20200;DHT22;36284;37.236;-121.934;2022-09-27T10:52:01;15.60;99.90
20200;DHT22;36284;37.236;-121.934;2022-09-27T10:54:32;15.40;99.90
20200;DHT22;36284;37.236;-121.934;2022-09-27T10:57:02;15.30;99.90
20200;DHT22;36284;37.236;-121.934;2022-09-27T10:59:33;15.20;99.90
20200;DHT22;36284;37.236;-121.934;2022-09-27T11:02:02;15.20;99.90
20200;DHT22;36284;37.236;-121.934;2022-09-27T11:04:35;14.50;99.90
20200;DHT22;36284;37.236;-121.934;2022-09-27T11:07:17;15.20;99.90
20200;DHT22;36284;37.236;-121.934;2022-09-27T11:09:50;15.00;99.90
20200;DHT22;36284;37.236;-121.934;2022-09-27T11:12:21;14.30;99.90
20200;DHT22;36284;37.236;-121.934;2022-09-27T11:14:55;15.00;99.90
20200;DHT22;36284;37.236;-121.934;2022-09-27T11:28:47;15.00;99.90
20200;DHT22;36284;37.236;-121.934;2022-09-27T11:50:55;15.10;99.90
20200;DHT22;36284;37.236;-121.934;2022-09-27T12:05:07;15.20;99.90
20200;DHT22;36284;37.236;-121.934;2022-09-27T12:10:17;14.90;99.90
20200;DHT22;36284;37.236;-121.934;2022-09-27T12:12:50;15.00;99.90
20200;DHT22;36284;37.236;-121.934;2022-09-27T12:15:27;15.00;99.90
20200;DHT22;36284;37.236;-121.934;2022-09-27T12:18:09;15.00;99.90
20200;DHT22;36284;37.236;-121.934;2022-09-27T12:20:40;15.40;99.90
20200;DHT22;36284;37.236;-121.934;2022-09-27T12:25:42;15.10;99.90
20200;DHT22;36284;37.236;-121.934;2022-09-27T12:30:43;15.10;99.90
20200;DHT22;36284;37.236;-121.934;2022-09-27T12:33:17;15.50;99.90
20200;DHT22;36284;37.236;-121.934;2022-09-27T12:35:50;15.10;99.90
20200;DHT22;36284;37.236;-121.934;2022-09-27T12:38:34;15.60;99.90
20200;DHT22;36284;37.236;-121.934;2022-09-27T12:41:05;15.10;99.90
20200;DHT22;36284;37.236;-121.934;2022-09-27T12:43:33;14.80;99.90
20200;DHT22;36284;37.236;-121.934;2022-09-27T12:51:22;15.20;99.90
20200;DHT22;36284;37.236;-121.934;2022-09-27T12:54:08;15.00;99.90
20200;DHT22;36284;37.236;-121.934;2022-09-27T13:13:16;15.00;99.90
20200;DHT22;36284;37.236;-121.934;2022-09-27T13:15:44;14.90;99.90
20200;DHT22;36284;37.236;-121.934;2022-09-27T13:21:05;14.50;99.90
20200;DHT22;36284;37.236;-121.934;2022-09-27T13:26:41;14.90;99.90
20200;DHT22;36284;37.236;-121.934;2022-09-27T13:29:24;15.00;99.90
20200;DHT22;36284;37.236;-121.934;2022-09-27T13:37:35;15.00;99.90
20200;DHT22;36284;37.236;-121.934;2022-09-27T13:45:56;14.90;99.90
20200;DHT22;36284;37.236;-121.934;2022-09-27T13:54:01;14.90;99.90
20200;DHT22;36284;37.236;-121.934;2022-09-27T13:59:51;14.80;99.90
20200;DHT22;36284;37.236;-121.934;2022-09-27T14:02:59;14.80;99.90
20200;DHT22;36284;37.236;-121.934;2022-09-27T14:05:12;14.70;99.90
20200;DHT22;36284;37.236;-121.934;2022-09-27T14:07:45;14.70;99.90
20200;DHT22;36284;37.236;-121.934;2022-09-27T14:10:17;14.80;99.90
20200;DHT22;36284;37.236;-121.934;2022-09-27T14:12:49;15.00;99.90
20200;DHT22;36284;37.236;-121.934;2022-09-27T14:15:21;14.90;99.90
20200;DHT22;36284;37.236;-121.934;2022-09-27T14:17:50;15.00;99.90
20200;DHT22;36284;37.236;-121.934;2022-09-27T14:20:39;15.00;99.90
20200;DHT22;36284;37.236;-121.934;2022-09-27T14:23:17;15.00;99.90
20200;DHT22;36284;37.236;-121.934;2022-09-27T14:25:48;14.80;99.90
20200;DHT22;36284;37.236;-121.934;2022-09-27T14:30:46;15.00;99.90
20200;DHT22;36284;37.236;-121.934;2022-09-27T14:33:28;14.60;99.90
20200;DHT22;36284;37.236;-121.934;2022-09-27T14:35:55;14.90;99.90
20200;DHT22;36284;37.236;-121.934;2022-09-27T14:38:41;14.80;99.90
20200;DHT22;36284;37.236;-121.934;2022-09-27T14:41:08;14.70;99.90
20200;DHT22;36284;37.236;-121.934;2022-09-27T14:43:44;14.60;99.90
20200;DHT22;36284;37.236;-121.934;2022-09-27T14:46:27;14.70;99.90
20200;DHT22;36284;37.236;-121.934;2022-09-27T14:48:54;14.90;99.90
20200;DHT22;36284;37.236;-121.934;2022-09-27T14:51:27;14.80;99.90
20200;DHT22;36284;37.236;-121.934;2022-09-27T14:53:56;14.80;99.90
20200;DHT22;36284;37.236;-121.934;2022-09-27T14:56:33;14.90;99.90
20200;DHT22;36284;37.236;-121.934;2022-09-27T14:59:25;14.90;99.90
20200;DHT22;36284;37.236;-121.934;2022-09-27T15:02:03;14.90;99.90
20200;DHT22;36284;37.236;-121.934;2022-09-27T15:04:37;14.70;99.90
20200;DHT22;36284;37.236;-121.934;2022-09-27T15:07:09;15.40;99.90
20200;DHT22;36284;37.236;-121.934;2022-09-27T15:09:36;15.00;99.90
20200;DHT22;36284;37.236;-121.934;2022-09-27T15:12:04;15.10;99.90
20200;DHT22;36284;37.236;-121.934;2022-09-27T15:14:32;15.10;99.90
20200;DHT22;36284;37.236;-121.934;2022-09-27T15:17:02;15.00;99.90
20200;DHT22;36284;37.236;-121.934;2022-09-27T15:19:31;15.30;99.90
20200;DHT22;36284;37.236;-121.934;2022-09-27T15:22:21;15.10;99.90
20200;DHT22;36284;37.236;-121.934;2022-09-27T15:24:49;15.40;99.90
20200;DHT22;36284;37.236;-121.934;2022-09-27T15:27:23;15.50;99.90
20200;DHT22;36284;37.236;-121.934;2022-09-27T15:29:53;15.70;99.90
20200;DHT22;36284;37.236;-121.934;2022-09-27T15:32:22;15.70;99.90
20200;DHT22;36284;37.236;-121.934;2022-09-27T15:34:50;15.90;99.90
20200;DHT22;36284;37.236;-121.934;2022-09-27T15:39:56;16.10;99.90
20200;DHT22;36284;37.236;-121.934;2022-09-27T15:42:57;16.10;99.90
20200;DHT22;36284;37.236;-121.934;2022-09-27T15:45:32;16.20;99.90
20200;DHT22;36284;37.236;-121.934;2022-09-27T15:48:13;16.30;99.90
20200;DHT22;36284;37.236;-121.934;2022-09-27T15:50:41;16.50;99.90
20200;DHT22;36284;37.236;-121.934;2022-09-27T15:53:09;16.60;99.90
20200;DHT22;36284;37.236;-121.934;2022-09-27T15:55:43;16.80;99.90
20200;DHT22;36284;37.236;-121.934;2022-09-27T15:58:16;16.90;99.90
20200;DHT22;36284;37.236;-121.934;2022-09-27T16:01:03;16.90;99.90
20200;DHT22;36284;37.236;-121.934;2022-09-27T16:03:33;16.80;99.90
20200;DHT22;36284;37.236;-121.934;2022-09-27T16:06:03;16.90;99.90
20200;DHT22;36284;37.236;-121.934;2022-09-27T16:08:30;16.90;99.90
20200;DHT22;36284;37.236;-121.934;2022-09-27T16:10:58;16.90;99.90
20200;DHT22;36284;37.236;-121.934;2022-09-27T16:13:26;17.10;99.90
20200;DHT22;36284;37.236;-121.934;2022-09-27T16:15:53;17.70;99.90
20200;DHT22;36284;37.236;-121.934;2022-09-27T16:18:20;18.10;99.90
20200;DHT22;36284;37.236;-121.934;2022-09-27T16:20:47;18.30;99.90
20200;DHT22;36284;37.236;-121.934;2022-09-27T16:23:14;17.90;99.90
20200;DHT22;36284;37.236;-121.934;2022-09-27T16:25:41;17.80;99.90
20200;DHT22;36284;37.236;-121.934;2022-09-27T16:28:09;18.00;99.90
20200;DHT22;36284;37.236;-121.934;2022-09-27T16:30:36;18.70;99.90
20200;DHT22;36284;37.236;-121.934;2022-09-27T16:33:03;18.90;99.90
20200;DHT22;36284;37.236;-121.934;2022-09-27T16:35:30;19.00;99.90
20200;DHT22;36284;37.236;-121.934;2022-09-27T16:37:57;19.10;99.90
20200;DHT22;36284;37.236;-121.934;2022-09-27T16:40:24;19.20;99.90
20200;DHT22;36284;37.236;-121.934;2022-09-27T16:42:53;19.30;99.90
20200;DHT22;36284;37.236;-121.934;2022-09-27T16:45:20;19.50;99.90
20200;DHT22;36284;37.236;-121.934;2022-09-27T16:47:47;19.90;99.90
20200;DHT22;36284;37.236;-121.934;2022-09-27T16:50:14;19.90;99.90
20200;DHT22;36284;37.236;-121.934;2022-09-27T16:52:59;20.50;99.90
20200;DHT22;36284;37.236;-121.934;2022-09-27T16:55:27;21.30;99.90
20200;DHT22;36284;37.236;-121.934;2022-09-27T16:57:57;22.60;99.90
20200;DHT22;36284;37.236;-121.934;2022-09-27T17:00:25;22.70;99.90
20200;DHT22;36284;37.236;-121.934;2022-09-27T17:02:52;22.80;99.90
20200;DHT22;36284;37.236;-121.934;2022-09-27T17:05:20;22.80;99.90
20200;DHT22;36284;37.236;-121.934;2022-09-27T17:10:21;22.50;99.90
20200;DHT22;36284;37.236;-121.934;2022-09-27T17:12:48;23.40;99.90
20200;DHT22;36284;37.236;-121.934;2022-09-27T17:17:42;23.30;99.90
20200;DHT22;36284;37.236;-121.934;2022-09-27T17:20:10;23.60;99.90
20200;DHT22;36284;37.236;-121.934;2022-09-27T17:22:38;24.20;99.90
20200;DHT22;36284;37.236;-121.934;2022-09-27T17:25:05;24.10;99.90
20200;DHT22;36284;37.236;-121.934;2022-09-27T17:27:32;23.50;99.90
20200;DHT22;36284;37.236;-121.934;2022-09-27T17:29:59;24.60;99.90
20200;DHT22;36284;37.236;-121.934;2022-09-27T17:32:26;24.50;99.90
20200;DHT22;36284;37.236;-121.934;2022-09-27T17:34:53;25.00;99.90
20200;DHT22;36284;37.236;-121.934;2022-09-27T17:37:21;25.30;99.90
20200;DHT22;36284;37.236;-121.934;2022-09-27T17:39:48;25.70;99.90
20200;DHT22;36284;37.236;-121.934;2022-09-27T17:42:15;25.30;99.90
20200;DHT22;36284;37.236;-121.934;2022-09-27T17:44:44;24.80;99.90
20200;DHT22;36284;37.236;-121.934;2022-09-27T17:47:11;25.30;99.90
20200;DHT22;36284;37.236;-121.934;2022-09-27T17:49:57;25.80;99.90
20200;DHT22;36284;37.236;-121.934;2022-09-27T17:52:42;25.40;99.90
20200;DHT22;36284;37.236;-121.934;2022-09-27T17:55:09;25.10;99.90
20200;DHT22;36284;37.236;-121.934;2022-09-27T17:57:36;25.80;99.90
20200;DHT22;36284;37.236;-121.934;2022-09-27T18:00:03;24.90;99.90
20200;DHT22;36284;37.236;-121.934;2022-09-27T18:02:31;24.40;99.90
20200;DHT22;36284;37.236;-121.934;2022-09-27T18:04:58;26.10;99.90
20200;DHT22;36284;37.236;-121.934;2022-09-27T18:07:25;26.90;99.90
20200;DHT22;36284;37.236;-121.934;2022-09-27T18:09:51;26.90;99.90
20200;DHT22;36284;37.236;-121.934;2022-09-27T18:12:18;26.00;99.90